Terminal Aerodrome Forecast
Issued by NWS Charleston, WV

Current Version | Previous Version | Text Only | Print | Product List | Glossary Off
Versions: 1 2 3 4 5 6 7 8 9 10 11 12 13 14 15 16 17 18 19 20 21 22 23 24 25 26 27 28 29

631
FTUS41 KRLX 171457 AAA
TAFPKB
TAF AMD
KPKB 171457Z 1715/1812 25009G17KT P6SM -SHSN BKN025 OVC035
     FM171900 25010G18KT P6SM OVC035
     FM180200 27004KT P6SM SCT035=

USA.gov is the U.S. government's official web portal to all federal, state and local government web resources and services.